createdAt,value
2023-04-05T00:02:25.121Z,7.10
2023-04-05T00:04:57.531Z,7.50
2023-04-05T00:07:26.589Z,9.10
2023-04-05T00:09:53.722Z,10.23
2023-04-05T00:12:21.163Z,8.43
2023-04-05T00:14:48.627Z,8.73
2023-04-05T00:17:15.544Z,15.93
2023-04-05T00:19:44.586Z,7.67
2023-04-05T00:22:12.470Z,7.03
2023-04-05T00:24:42.032Z,8.50
2023-04-05T00:27:09.052Z,8.77
2023-04-05T00:29:36.302Z,9.63
2023-04-05T00:32:04.718Z,5.63
2023-04-05T00:34:32.843Z,9.13
2023-04-05T00:36:59.969Z,11.33
2023-04-05T00:39:29.386Z,8.67
2023-04-05T00:41:56.711Z,6.57
2023-04-05T00:44:26.727Z,8.60
2023-04-05T00:46:54.215Z,8.03
2023-04-05T00:49:21.265Z,9.47
2023-04-05T00:51:49.344Z,7.13
2023-04-05T00:54:16.378Z,6.70
2023-04-05T00:56:43.884Z,8.70
2023-04-05T00:59:10.819Z,7.37
2023-04-05T01:01:40.698Z,9.67
2023-04-05T01:04:11.911Z,6.33
2023-04-05T01:07:07.525Z,7.07
2023-04-05T01:09:44.678Z,7.93
2023-04-05T01:12:19.897Z,8.60
2023-04-05T01:14:52.813Z,9.27
2023-04-05T01:17:22.896Z,11.37
2023-04-05T01:19:53.774Z,8.27
2023-04-05T01:22:32.305Z,8.10
2023-04-05T01:25:10.783Z,9.17
2023-04-05T01:28:04.949Z,7.53
2023-04-05T01:30:39.125Z,8.77
2023-04-05T01:33:38.453Z,8.33
2023-04-05T01:36:20.493Z,9.67
2023-04-05T01:38:50.813Z,11.70
2023-04-05T01:41:17.753Z,9.13
2023-04-05T01:43:44.536Z,15.43
2023-04-05T01:46:11.480Z,11.53
2023-04-05T01:48:38.454Z,10.83
2023-04-05T01:51:05.370Z,9.77
2023-04-05T01:53:32.356Z,9.40
2023-04-05T01:56:02.608Z,8.87
2023-04-05T01:58:29.656Z,11.27
2023-04-05T02:00:57.219Z,7.47
2023-04-05T02:03:24.805Z,9.90
2023-04-05T02:05:51.991Z,8.80
2023-04-05T02:08:19.132Z,7.60
2023-04-05T02:10:45.989Z,12.73
2023-04-05T02:13:13.731Z,10.27
2023-04-05T02:15:40.955Z,9.50
2023-04-05T02:18:09.696Z,11.03
2023-04-05T02:20:36.459Z,15.10
2023-04-05T02:23:03.570Z,12.93
2023-04-05T02:25:30.511Z,13.70
2023-04-05T02:27:57.289Z,10.20
2023-04-05T02:30:24.270Z,10.33
2023-04-05T02:32:51.069Z,14.57
2023-04-05T02:35:18.394Z,9.73
2023-04-05T02:37:45.597Z,9.90
2023-04-05T02:40:15.085Z,8.97
2023-04-05T02:42:42.609Z,10.17
2023-04-05T02:45:11.456Z,9.43
2023-04-05T02:47:38.187Z,12.70
2023-04-05T02:50:05.887Z,12.50
2023-04-05T02:52:34.410Z,13.00
2023-04-05T02:55:01.671Z,10.60
2023-04-05T02:57:28.666Z,9.33
2023-04-05T02:59:56.089Z,10.77
2023-04-05T03:02:22.988Z,12.27
2023-04-05T03:04:53.527Z,12.57
2023-04-05T03:07:22.126Z,9.37
2023-04-05T03:09:49.017Z,9.50
2023-04-05T03:12:16.099Z,8.90
2023-04-05T03:14:43.021Z,11.43
2023-04-05T03:17:10.326Z,8.67
2023-04-05T03:19:37.629Z,10.87
2023-04-05T03:22:04.923Z,9.40
2023-04-05T03:24:32.042Z,9.63
2023-04-05T03:27:02.552Z,9.27
2023-04-05T03:29:29.503Z,12.10
2023-04-05T03:31:57.755Z,11.70
2023-04-05T03:34:29.308Z,10.37
2023-04-05T03:36:56.297Z,7.97
2023-04-05T03:39:23.171Z,9.23
2023-04-05T03:41:50.057Z,12.83
2023-04-05T03:44:16.970Z,11.40
2023-04-05T03:46:44.082Z,9.90
2023-04-05T03:49:11.172Z,10.90
2023-04-05T03:51:38.132Z,8.83
2023-04-05T03:54:05.199Z,10.53
2023-04-05T03:56:32.993Z,9.73
2023-04-05T03:58:59.828Z,10.40
2023-04-05T04:01:27.059Z,9.23
2023-04-05T04:03:54.000Z,9.00
2023-04-05T04:06:20.871Z,9.97
2023-04-05T04:08:47.856Z,8.30
2023-04-05T04:11:14.601Z,11.57
2023-04-05T04:13:41.793Z,13.63
2023-04-05T04:16:09.119Z,12.50
2023-04-05T04:18:35.961Z,9.60
2023-04-05T04:21:07.113Z,11.57
2023-04-05T04:23:34.819Z,8.83
2023-04-05T04:26:03.032Z,11.97
2023-04-05T04:28:30.130Z,12.80
2023-04-05T04:30:57.048Z,8.87
2023-04-05T04:33:24.110Z,10.17
2023-04-05T04:35:54.710Z,11.73
2023-04-05T04:38:21.909Z,14.10
2023-04-05T04:40:50.868Z,15.00
2023-04-05T04:43:17.801Z,8.90
2023-04-05T04:45:50.172Z,15.53
2023-04-05T04:48:17.594Z,9.13
2023-04-05T04:50:45.726Z,9.20
2023-04-05T04:53:13.746Z,10.80
2023-04-05T04:55:43.414Z,12.73
2023-04-05T04:58:12.044Z,16.77
2023-04-05T05:00:40.914Z,12.27
2023-04-05T05:03:08.642Z,12.03
2023-04-05T05:05:35.688Z,14.17
2023-04-05T05:08:02.795Z,10.70
2023-04-05T05:10:29.703Z,11.73
2023-04-05T05:12:56.598Z,12.30
2023-04-05T05:15:23.428Z,10.80
2023-04-05T05:17:53.087Z,12.17
2023-04-05T05:20:20.657Z,12.40
2023-04-05T05:22:47.910Z,13.30
2023-04-05T05:25:14.761Z,10.37
2023-04-05T05:27:42.165Z,12.10
2023-04-05T05:30:09.520Z,11.60
2023-04-05T05:32:36.432Z,13.97
2023-04-05T05:35:03.530Z,11.87
2023-04-05T05:37:32.003Z,9.97
2023-04-05T05:39:59.252Z,12.00
2023-04-05T05:42:27.571Z,11.87
2023-04-05T05:44:54.439Z,12.53
2023-04-05T05:47:21.903Z,13.73
2023-04-05T05:49:50.007Z,8.57
2023-04-05T05:52:16.903Z,11.47
2023-04-05T05:54:43.847Z,12.67
2023-04-05T05:57:11.059Z,8.93
2023-04-05T05:59:38.026Z,10.80
2023-04-05T06:02:04.813Z,15.60
2023-04-05T06:04:31.837Z,12.60
2023-04-05T06:06:59.101Z,14.10
2023-04-05T06:09:26.161Z,9.23
2023-04-05T06:11:56.875Z,11.47
2023-04-05T06:14:25.208Z,9.17
2023-04-05T06:16:52.711Z,6.97
2023-04-05T06:19:19.737Z,7.53
2023-04-05T06:21:46.995Z,7.23
2023-04-05T06:24:13.867Z,9.20
2023-04-05T06:26:41.481Z,9.53
2023-04-05T06:29:08.580Z,11.90
2023-04-05T06:31:37.007Z,10.37
2023-04-05T06:34:03.965Z,10.67
2023-04-05T06:36:32.114Z,5.73
2023-04-05T06:38:59.552Z,5.32
2023-04-05T06:41:27.969Z,6.88
2023-04-05T06:43:56.630Z,7.03
2023-04-05T06:46:24.323Z,6.72
2023-04-05T06:48:52.458Z,5.50
2023-04-05T06:51:19.357Z,5.35
2023-04-05T06:53:46.501Z,8.35
2023-04-05T06:56:13.665Z,6.75
2023-04-05T06:58:40.571Z,5.90
2023-04-05T07:01:07.973Z,6.82
2023-04-05T07:03:35.150Z,5.60
2023-04-05T07:06:03.016Z,6.55
2023-04-05T07:08:32.418Z,7.47
2023-04-05T07:10:59.561Z,7.60
2023-04-05T07:13:26.541Z,7.00
2023-04-05T07:16:01.420Z,7.70
2023-04-05T07:18:28.565Z,6.13
2023-04-05T07:21:00.364Z,6.73
2023-04-05T07:23:28.582Z,7.57
2023-04-05T07:25:59.265Z,7.97
2023-04-05T07:28:26.816Z,10.83
2023-04-05T07:30:53.921Z,6.97
2023-04-05T07:33:21.060Z,8.47
2023-04-05T07:35:57.109Z,7.33
2023-04-05T07:38:24.370Z,6.93
2023-04-05T07:40:51.812Z,8.80
2023-04-05T07:43:19.610Z,11.17
2023-04-05T07:45:46.590Z,11.73
2023-04-05T07:48:13.797Z,7.73
2023-04-05T07:50:43.282Z,6.60
2023-04-05T07:53:10.608Z,8.77
2023-04-05T07:55:41.869Z,8.97
2023-04-05T07:58:09.376Z,11.20
2023-04-05T08:00:37.236Z,9.57
2023-04-05T08:03:05.131Z,7.13
2023-04-05T08:05:32.928Z,7.23
2023-04-05T08:07:59.988Z,10.27
2023-04-05T08:10:27.927Z,6.87
2023-04-05T08:12:55.153Z,9.20
2023-04-05T08:15:22.202Z,9.17
2023-04-05T08:17:49.459Z,6.50
2023-04-05T08:20:16.843Z,6.67
2023-04-05T08:22:43.678Z,6.10
2023-04-05T08:25:10.907Z,5.47
2023-04-05T08:27:37.911Z,8.90
2023-04-05T08:30:06.140Z,5.50
2023-04-05T08:32:34.181Z,6.40
2023-04-05T08:35:01.437Z,6.23
2023-04-05T08:37:28.378Z,6.03
2023-04-05T08:39:55.583Z,13.43
2023-04-05T08:42:37.043Z,6.37
2023-04-05T08:45:08.287Z,6.03
2023-04-05T08:47:37.833Z,5.13
2023-04-05T08:50:05.847Z,9.63
2023-04-05T08:52:34.806Z,7.00
2023-04-05T08:55:02.030Z,6.33
2023-04-05T08:57:31.888Z,6.10
2023-04-05T09:00:01.727Z,4.23
2023-04-05T09:02:29.765Z,4.07
2023-04-05T09:04:58.096Z,5.53
2023-04-05T09:07:30.034Z,5.23
2023-04-05T09:10:01.036Z,7.90
2023-04-05T09:12:30.058Z,4.37
2023-04-05T09:14:59.274Z,6.57
2023-04-05T09:17:27.603Z,5.13
2023-04-05T09:19:54.682Z,4.03
2023-04-05T09:22:24.680Z,5.23
2023-04-05T09:24:51.689Z,3.57
2023-04-05T09:27:20.217Z,5.10
2023-04-05T09:29:49.692Z,4.67
2023-04-05T09:32:24.724Z,4.47
2023-04-05T09:34:54.353Z,3.30
2023-04-05T09:37:23.029Z,6.23
2023-04-05T09:39:52.249Z,3.70
2023-04-05T09:42:23.338Z,8.20
2023-04-05T09:44:56.320Z,3.97
2023-04-05T09:47:32.311Z,4.50
2023-04-05T09:50:00.640Z,5.10
2023-04-05T09:52:34.361Z,4.63
2023-04-05T09:55:04.510Z,4.83
2023-04-05T09:57:35.101Z,4.20
2023-04-05T10:00:02.303Z,5.00
2023-04-05T10:02:37.984Z,9.00
2023-04-05T10:05:13.464Z,5.60
2023-04-05T10:07:41.594Z,3.70
2023-04-05T10:10:13.233Z,6.67
2023-04-05T10:12:41.931Z,3.60
2023-04-05T10:15:11.083Z,5.07
2023-04-05T10:17:53.466Z,5.30
2023-04-05T10:20:21.672Z,5.47
2023-04-05T10:23:03.575Z,4.93
2023-04-05T10:25:39.450Z,5.37
2023-04-05T10:28:12.808Z,4.60
2023-04-05T10:30:44.348Z,4.70
2023-04-05T10:33:22.524Z,4.17
2023-04-05T10:35:55.471Z,6.20
2023-04-05T10:38:27.188Z,4.80
2023-04-05T10:41:05.769Z,4.23
2023-04-05T10:43:35.970Z,5.20
2023-04-05T10:46:04.282Z,5.50
2023-04-05T10:48:52.841Z,5.60
2023-04-05T10:51:24.348Z,5.87
2023-04-05T10:53:51.987Z,6.20
2023-04-05T10:56:20.576Z,5.77
2023-04-05T10:58:50.346Z,6.63
2023-04-05T11:01:18.851Z,4.30
2023-04-05T11:03:49.495Z,6.30
2023-04-05T11:06:31.022Z,6.07
2023-04-05T11:09:16.437Z,5.07
2023-04-05T11:11:45.862Z,5.07
2023-04-05T11:14:31.583Z,3.47
2023-04-05T11:16:59.646Z,5.10
2023-04-05T11:19:47.373Z,4.20
2023-04-05T11:22:24.394Z,6.13
2023-04-05T11:24:54.150Z,6.47
2023-04-05T11:27:28.823Z,4.13
2023-04-05T11:29:58.382Z,6.87
2023-04-05T11:32:42.917Z,4.50
2023-04-05T11:35:23.644Z,4.60
2023-04-05T11:37:55.181Z,3.27
2023-04-05T11:40:31.097Z,6.27
2023-04-05T11:43:10.358Z,5.07
2023-04-05T11:45:39.357Z,4.00
2023-04-05T11:48:13.577Z,5.83
2023-04-05T11:50:42.256Z,6.07
2023-04-05T11:53:17.385Z,4.63
2023-04-05T11:55:47.209Z,7.63
2023-04-05T11:58:15.121Z,4.70
2023-04-05T12:00:42.958Z,5.50
2023-04-05T12:03:19.205Z,5.27
2023-04-05T12:05:54.401Z,4.83
2023-04-05T12:08:22.516Z,5.87
2023-04-05T12:11:01.668Z,9.13
2023-04-05T12:13:32.385Z,3.83
2023-04-05T12:16:00.897Z,6.37
2023-04-05T12:18:30.765Z,8.30
2023-04-05T12:20:58.437Z,4.57
2023-04-05T12:23:26.346Z,6.07
2023-04-05T12:25:57.245Z,5.57
2023-04-05T12:28:25.025Z,4.50
2023-04-05T12:30:58.113Z,6.37
2023-04-05T12:33:29.107Z,5.37
2023-04-05T12:35:57.082Z,5.53
2023-04-05T12:38:27.697Z,4.37
2023-04-05T12:40:55.281Z,4.37
2023-04-05T12:43:24.201Z,5.47
2023-04-05T12:45:56.718Z,3.93
2023-04-05T12:48:26.172Z,6.37
2023-04-05T12:50:55.202Z,4.00
2023-04-05T12:53:24.457Z,5.47
2023-04-05T12:55:56.463Z,5.07
2023-04-05T12:58:38.708Z,4.83
2023-04-05T13:01:07.826Z,6.33
2023-04-05T13:03:36.101Z,4.87
2023-04-05T13:06:03.375Z,7.00
2023-04-05T13:08:30.976Z,4.43
2023-04-05T13:10:58.425Z,8.90
2023-04-05T13:13:25.560Z,7.73
2023-04-05T13:15:52.821Z,5.07
2023-04-05T13:18:20.076Z,4.07
2023-04-05T13:20:46.967Z,6.80
2023-04-05T13:23:13.823Z,4.37
2023-04-05T13:25:43.275Z,5.60
2023-04-05T13:28:10.901Z,4.67
2023-04-05T13:30:38.089Z,6.03
2023-04-05T13:33:05.620Z,7.10
2023-04-05T13:35:32.634Z,5.63
2023-04-05T13:38:01.745Z,5.27
2023-04-05T13:40:32.113Z,4.93
2023-04-05T13:42:59.570Z,5.57
2023-04-05T13:45:27.613Z,5.50
2023-04-05T13:47:55.108Z,5.77
2023-04-05T13:50:21.952Z,4.23
2023-04-05T13:52:48.795Z,6.70
2023-04-05T13:55:19.148Z,4.20
2023-04-05T13:57:46.169Z,5.37
2023-04-05T14:00:14.279Z,4.53
2023-04-05T14:02:42.596Z,4.57
2023-04-05T14:05:10.070Z,4.67
2023-04-05T14:07:37.648Z,5.30
2023-04-05T14:10:06.908Z,4.77
2023-04-05T14:12:34.500Z,8.33
2023-04-05T14:15:01.368Z,6.40
2023-04-05T14:17:28.414Z,4.80
2023-04-05T14:19:55.415Z,5.13
2023-04-05T14:22:22.460Z,5.27
2023-04-05T14:24:49.581Z,5.77
2023-04-05T14:27:16.474Z,5.13
2023-04-05T14:29:45.639Z,4.80
2023-04-05T14:32:12.987Z,4.43
2023-04-05T14:34:39.858Z,6.73
2023-04-05T14:37:07.900Z,5.90
2023-04-05T14:39:35.062Z,4.90
2023-04-05T14:42:02.028Z,5.93
2023-04-05T14:44:29.382Z,6.30
2023-04-05T14:46:56.676Z,8.27
2023-04-05T14:49:23.587Z,5.50
2023-04-05T14:51:50.949Z,5.20
2023-04-05T14:54:18.649Z,5.13
2023-04-05T14:56:45.496Z,7.43
2023-04-05T14:59:12.405Z,6.50
2023-04-05T15:01:41.964Z,4.93
2023-04-05T15:04:09.444Z,5.93
2023-04-05T15:06:37.623Z,7.63
2023-04-05T15:09:05.098Z,5.33
2023-04-05T15:11:35.537Z,4.00
2023-04-05T15:14:02.468Z,7.03
2023-04-05T15:16:30.670Z,5.17
2023-04-05T15:18:59.472Z,4.67
2023-04-05T15:21:26.478Z,4.93
2023-04-05T15:23:53.527Z,6.03
2023-04-05T15:26:21.024Z,5.40
2023-04-05T15:28:47.878Z,4.37
2023-04-05T15:31:15.172Z,3.80
2023-04-05T15:33:42.119Z,5.70
2023-04-05T15:36:09.307Z,4.33
2023-04-05T15:38:36.518Z,4.37
2023-04-05T15:41:03.600Z,4.50
2023-04-05T15:43:31.590Z,5.67
2023-04-05T15:45:58.656Z,4.87
2023-04-05T15:48:25.528Z,8.67
2023-04-05T15:50:52.608Z,4.87
2023-04-05T15:53:19.686Z,5.13
2023-04-05T15:55:46.876Z,5.30
2023-04-05T15:58:13.762Z,7.57
2023-04-05T16:00:41.848Z,5.67
2023-04-05T16:03:09.076Z,4.47
2023-04-05T16:05:36.350Z,4.43
2023-04-05T16:08:03.703Z,5.83
2023-04-05T16:10:30.574Z,5.87
2023-04-05T16:12:58.205Z,5.90
2023-04-05T16:15:25.941Z,6.13
2023-04-05T16:17:52.881Z,4.57
2023-04-05T16:20:20.057Z,4.53
2023-04-05T16:22:47.081Z,5.33
2023-04-05T16:25:13.920Z,4.43
2023-04-05T16:27:40.969Z,5.60
2023-04-05T16:30:08.977Z,4.10
2023-04-05T16:32:36.032Z,4.77
2023-04-05T16:35:03.116Z,5.40
2023-04-05T16:37:30.179Z,8.43
2023-04-05T16:39:57.023Z,4.40
2023-04-05T16:42:23.900Z,4.90
2023-04-05T16:44:52.321Z,4.67
2023-04-05T16:47:19.213Z,4.63
2023-04-05T16:49:46.177Z,6.50
2023-04-05T16:52:13.318Z,4.17
2023-04-05T16:54:40.106Z,5.87
2023-04-05T16:57:07.001Z,6.90
2023-04-05T16:59:34.048Z,7.73
2023-04-05T17:02:01.056Z,7.27
2023-04-05T17:04:28.321Z,3.83
2023-04-05T17:06:55.434Z,4.67
2023-04-05T17:09:23.697Z,4.83
2023-04-05T17:11:50.809Z,7.20
2023-04-05T17:14:17.972Z,4.73
2023-04-05T17:16:45.485Z,3.53
2023-04-05T17:19:12.375Z,3.93
2023-04-05T17:21:39.843Z,4.67
2023-04-05T17:24:07.048Z,4.43
2023-04-05T17:26:34.151Z,5.80
2023-04-05T17:29:00.992Z,5.23
2023-04-05T17:31:28.370Z,4.13
2023-04-05T17:33:55.533Z,4.80
2023-04-05T17:36:22.350Z,5.33
2023-04-05T17:38:49.628Z,5.33
2023-04-05T17:41:17.364Z,7.00
2023-04-05T17:43:44.357Z,7.30
2023-04-05T17:46:13.925Z,7.30
2023-04-05T17:48:41.843Z,3.87
2023-04-05T17:51:09.072Z,6.33
2023-04-05T17:53:36.543Z,5.17
2023-04-05T17:56:03.677Z,5.00
2023-04-05T17:58:32.260Z,3.90
2023-04-05T18:00:59.983Z,6.23
2023-04-05T18:03:27.610Z,9.30
2023-04-05T18:05:55.949Z,6.10
2023-04-05T18:08:24.455Z,6.60
2023-04-05T18:11:00.759Z,6.30
2023-04-05T18:13:28.667Z,7.13
2023-04-05T18:15:57.458Z,6.07
2023-04-05T18:18:25.724Z,4.37
2023-04-05T18:20:54.086Z,5.53
2023-04-05T18:23:27.845Z,4.97
2023-04-05T18:25:55.828Z,5.33
2023-04-05T18:28:23.694Z,6.50
2023-04-05T18:30:51.450Z,7.17
2023-04-05T18:33:19.145Z,6.00
2023-04-05T18:35:50.248Z,4.93
2023-04-05T18:38:17.306Z,5.17
2023-04-05T18:40:44.674Z,6.07
2023-04-05T18:43:11.928Z,5.40
2023-04-05T18:45:39.610Z,5.90
2023-04-05T18:48:06.917Z,7.17
2023-04-05T18:50:34.612Z,6.43
2023-04-05T18:53:01.923Z,5.20
2023-04-05T18:55:28.748Z,6.17
2023-04-05T18:57:55.649Z,4.47
2023-04-05T19:00:23.077Z,5.50
2023-04-05T19:02:50.282Z,7.90
2023-04-05T19:05:17.299Z,7.53
2023-04-05T19:07:44.399Z,4.73
2023-04-05T19:10:11.918Z,6.63
2023-04-05T19:12:39.085Z,8.07
2023-04-05T19:15:07.281Z,7.87
2023-04-05T19:17:34.197Z,7.63
2023-04-05T19:20:01.954Z,7.50
2023-04-05T19:22:29.266Z,4.93
2023-04-05T19:24:56.260Z,7.67
2023-04-05T19:27:31.174Z,8.33
2023-04-05T19:30:01.324Z,6.40
2023-04-05T19:32:28.165Z,7.03
2023-04-05T19:34:55.060Z,9.00
2023-04-05T19:37:22.343Z,8.80
2023-04-05T19:39:49.208Z,6.47
2023-04-05T19:42:15.997Z,7.77
2023-04-05T19:44:55.774Z,7.60
2023-04-05T19:47:22.734Z,9.93
2023-04-05T19:49:51.842Z,9.93
2023-04-05T19:52:54.353Z,7.53
2023-04-05T19:55:34.040Z,10.33
2023-04-05T19:58:06.363Z,13.00
2023-04-05T20:00:35.490Z,7.63
2023-04-05T20:03:03.335Z,10.03
2023-04-05T20:05:42.742Z,9.23
2023-04-05T20:08:09.636Z,9.97
2023-04-05T20:10:43.680Z,10.17
2023-04-05T20:13:10.913Z,9.20
2023-04-05T20:15:39.504Z,7.53
2023-04-05T20:18:08.791Z,9.63
2023-04-05T20:20:36.820Z,8.30
2023-04-05T20:23:06.743Z,11.20
2023-04-05T20:25:44.313Z,9.60
2023-04-05T20:28:32.192Z,11.53
2023-04-05T20:30:59.301Z,12.20
2023-04-05T20:33:36.102Z,11.50
2023-04-05T20:36:10.274Z,11.73
2023-04-05T20:38:38.640Z,10.47
2023-04-05T20:41:06.000Z,14.83
2023-04-05T20:43:33.509Z,11.17
2023-04-05T20:46:04.438Z,9.80
2023-04-05T20:48:32.233Z,12.20
2023-04-05T20:51:00.885Z,13.67
2023-04-05T20:53:28.619Z,9.90
2023-04-05T20:55:56.354Z,13.60
2023-04-05T20:58:23.633Z,9.67
2023-04-05T21:00:50.670Z,9.63
2023-04-05T21:03:18.136Z,12.10
2023-04-05T21:05:45.639Z,10.03
2023-04-05T21:08:12.721Z,14.10
2023-04-05T21:10:40.075Z,11.47
2023-04-05T21:13:07.395Z,17.23
2023-04-05T21:15:35.136Z,14.60
2023-04-05T21:18:04.556Z,13.07
2023-04-05T21:20:32.142Z,15.80
2023-04-05T21:22:59.887Z,16.67
2023-04-05T21:25:26.770Z,11.83
2023-04-05T21:27:53.857Z,11.73
2023-04-05T21:30:21.002Z,11.40
2023-04-05T21:32:47.882Z,10.30
2023-04-05T21:35:15.040Z,10.10
2023-04-05T21:37:42.240Z,10.93
2023-04-05T21:40:10.000Z,8.57
2023-04-05T21:42:37.033Z,11.53
2023-04-05T21:45:04.256Z,11.13
2023-04-05T21:47:31.195Z,12.23
2023-04-05T21:49:58.248Z,10.13
2023-04-05T21:52:28.648Z,12.77
2023-04-05T21:54:56.386Z,10.87
2023-04-05T21:57:23.680Z,11.03
2023-04-05T21:59:50.568Z,10.33
2023-04-05T22:02:17.769Z,12.97
2023-04-05T22:04:45.148Z,9.77
2023-04-05T22:07:12.151Z,11.97
2023-04-05T22:09:39.826Z,10.17
2023-04-05T22:12:07.144Z,10.00
2023-04-05T22:14:34.012Z,11.87
2023-04-05T22:17:01.809Z,26.33
2023-04-05T22:19:29.323Z,8.97
2023-04-05T22:21:56.335Z,10.13
2023-04-05T22:24:24.107Z,10.70
2023-04-05T22:26:54.187Z,12.50
2023-04-05T22:29:23.798Z,9.20
2023-04-05T22:31:51.152Z,10.63
2023-04-05T22:34:24.151Z,12.90
2023-04-05T22:36:51.145Z,10.53
2023-04-05T22:39:18.287Z,11.17
2023-04-05T22:41:45.589Z,9.80
2023-04-05T22:44:12.471Z,9.17
2023-04-05T22:46:39.411Z,10.30
2023-04-05T22:49:06.628Z,8.07
2023-04-05T22:51:33.785Z,12.37
2023-04-05T22:54:00.968Z,8.97
2023-04-05T22:56:28.045Z,10.40
2023-04-05T22:58:54.895Z,11.13
2023-04-05T23:01:21.891Z,10.60
2023-04-05T23:03:48.908Z,10.20
2023-04-05T23:06:15.959Z,11.40
2023-04-05T23:08:42.830Z,11.03
2023-04-05T23:11:09.865Z,9.90
2023-04-05T23:13:36.756Z,9.33
2023-04-05T23:16:04.043Z,8.83
2023-04-05T23:18:31.076Z,9.80
2023-04-05T23:20:59.066Z,8.20
2023-04-05T23:23:26.219Z,9.27
2023-04-05T23:25:56.317Z,9.97
2023-04-05T23:28:23.196Z,9.27
2023-04-05T23:30:50.373Z,7.90
2023-04-05T23:33:17.551Z,11.13
2023-04-05T23:35:44.456Z,8.90
2023-04-05T23:38:11.477Z,9.00
2023-04-05T23:40:38.915Z,10.50
2023-04-05T23:43:06.468Z,12.47
2023-04-05T23:45:33.637Z,11.23
2023-04-05T23:48:01.167Z,8.90
2023-04-05T23:50:28.148Z,10.73
2023-04-05T23:52:55.204Z,10.23
2023-04-05T23:55:22.832Z,13.17
2023-04-05T23:57:49.705Z,10.33
